PILOTS ONLINE: 219    ATC ONLINE: 32

PANT - Annette Island Airport

Location

IATA ANN
City Annette
Country  United States
Latitude 55° 2' 32" N
Longitude 131° 34' 19" W
Elevation 119 ft
Type Medium Airport

Runways

02/20 5709 ft / 150 ft
12/30 7493 ft / 150 ft

Weather

METAR
2014/07/23 04:53
PANT 230453Z AUTO 14004KT 10SM OVC085 14/12 A3012 RMK AO2 SLP199 T01440117 TSNO $
TAF
No TAF available

Outbound flights

Inbound flights